• Join FlightAware (Why Join?)
  • Login
  • US Flag 
05:07PM EDT


 

Airport Tracker/Info


-or-


 

Live Flight TrackerFlight Track Log ✈ BYA227 ✈ 02-Sep-2013 ✈ KGCN - KLGB

Flight Track Log - Related Links

Times and Time Zones

All times are in EDT time to prevent confusion due to time zone crossing. See the BYA227 flight status page for this flight to view local times or setup timezone preferences in your user account.

Time Position Orientation Groundspeed Altitude Reporting Facility
EDT Latitude Longitude Course Direction KTS MPH feet Rate Location/Type
03:44PM 35.9050 -112.2922 253° West 162 186 9,100  Level Los Angeles Center
03:45PM 35.8881 -112.3625 253° West 174 200 10,100 780 Climbing Los Angeles Center
03:46PM 35.8725 -112.4244 253° West 186 214 10,800 660 Climbing Los Angeles Center
03:47PM 35.8558 -112.4847 251° West 191 220 11,500 660 Climbing Los Angeles Center
03:48PM 35.8411 -112.5475 254° West 193 222 12,200 720 Climbing Los Angeles Center
03:49PM 35.8211 -112.6244 252° West 198 228 13,000 660 Climbing Los Angeles Center
03:50PM 35.8078 -112.6881 256° West 195 224 13,600 540 Climbing Los Angeles Center
03:51PM 35.7914 -112.7514 252° West 196 226 14,200 540 Climbing Los Angeles Center
03:52PM 35.7764 -112.8150 254° West 195 224 14,800 600 Climbing Los Angeles Center
03:53PM 35.7619 -112.8783 254° West 194 223 15,500 480 Climbing Los Angeles Center
03:54PM 35.7417 -112.9531 252° West 194 223 15,900 180 Climbing Los Angeles Center
03:55PM 35.7233 -113.0219 252° West 210 242 15,900  Level Los Angeles Center
03:56PM 35.7036 -113.0958 252° West 227 261 15,900  Level Los Angeles Center
03:57PM 35.6806 -113.1819 252° West 230 265 15,900  Level Los Angeles Center
03:58PM 35.6575 -113.2578 250° West 233 268 15,900 -120 Level Los Angeles Center
03:59PM 35.6347 -113.3375 251° West 241 277 15,700  Descending Los Angeles Center
04:01PM 35.6153 -113.4161 253° West 243 280 15,900  Climbing Los Angeles Center
04:02PM 35.5897 -113.5103 252° West 244 281 15,800 -60 Descending Los Angeles Center
04:03PM 35.5633 -113.6064 251° West 249 287 15,800  Level Los Angeles Center
04:04PM 35.5431 -113.6889 253° West 254 292 15,900  Climbing Los Angeles Center
04:05PM 35.5208 -113.7694 251° West 252 290 15,900  Level Los Angeles Center
04:06PM 35.5006 -113.8506 253° West 252 290 15,900 -60 Level Los Angeles Center
04:07PM 35.4775 -113.9306 251° West 251 289 15,800  Descending Los Angeles Center
04:08PM 35.4511 -114.0278 252° West 252 290 15,900 60 Climbing Los Angeles Center
04:09PM 35.4272 -114.1164 252° West 255 293 16,000 120 Climbing Los Angeles Center
04:10PM 35.4067 -114.1953 252° West 247 284 16,200 60 Climbing Los Angeles Center
04:11PM 35.3853 -114.2767 252° West 250 288 16,200  Level Los Angeles Center
04:12PM 35.3633 -114.3586 252° West 253 291 16,200  Level Los Angeles Center
04:13PM 35.3411 -114.4406 252° West 253 291 16,200  Level Los Angeles Center
04:14PM 35.3186 -114.5222 251° West 254 292 16,200  Level Los Angeles Center
04:15PM 35.2914 -114.6208 251° West 254 292 16,200  Level Los Angeles Center
04:16PM 35.2708 -114.7042 253° West 255 293 16,200  Level Los Angeles Center
04:17PM 35.2497 -114.7878 253° West 257 296 16,200  Level Los Angeles Center
04:18PM 35.2289 -114.8706 253° West 256 295 16,200  Level Los Angeles Center
04:19PM 35.2072 -114.9525 252° West 254 292 16,200  Level Los Angeles Center
04:20PM 35.1844 -115.0344 251° West 254 292 16,200  Level Los Angeles Center
04:21PM 35.1600 -115.1325 253° West 252 290 16,200  Level Los Angeles Center
04:22PM 35.1375 -115.2150 252° West 255 293 16,200  Level Los Angeles Center
04:23PM 35.1167 -115.2881 251° West 256 295 16,200  Level Los Angeles Center
04:25PM 35.0947 -115.3692 252° West 254 292 16,200  Level Los Angeles Center
04:26PM 35.0692 -115.4675 252° West 254 292 16,200  Level Los Angeles Center
04:27PM 35.0481 -115.5503 253° West 254 292 16,200 -60 Level Los Angeles Center
04:28PM 35.0272 -115.6336 253° West 257 296 16,100 -60 Descending Los Angeles Center
04:29PM 35.0067 -115.7158 253° West 255 293 16,100  Level Los Angeles Center
04:30PM 34.9867 -115.7989 254° West 255 293 16,100  Level Los Angeles Center
04:31PM 34.9608 -115.8961 252° West 253 291 16,100  Level Los Angeles Center
04:32PM 34.9383 -115.9775 251° West 253 291 16,100 -60 Level Los Angeles Center
04:33PM 34.9156 -116.0606 252° West 256 295 16,000 -60 Descending Los Angeles Center
04:34PM 34.8903 -116.1422 249° West 256 295 16,000  Level Los Angeles Center
04:35PM 34.8669 -116.2239 251° West 257 296 16,100  Climbing Los Angeles Center
04:36PM 34.8453 -116.3072 252° West 258 297 16,000 -60 Descending Los Angeles Center
04:37PM 34.8175 -116.4050 251° West 256 295 16,000  Level Los Angeles Center
04:38PM 34.7819 -116.4792 240° Southwest 262 302 16,100  Climbing Los Angeles Center
04:39PM 34.7350 -116.5386 226° Southwest 249 287 16,000  Descending Los Angeles Center
04:40PM 34.6856 -116.5992 225° Southwest 251 289 16,100  Climbing Los Angeles Center
04:41PM 34.6394 -116.6631 229° Southwest 251 289 16,000 -300 Descending Los Angeles Center
04:42PM 34.5917 -116.7281 228° Southwest 255 293 15,600 -480 Descending Los Angeles Center
04:43PM 34.5267 -116.8011 223° Southwest 263 303 15,100 -540 Descending Los Angeles Center
04:44PM 34.4711 -116.8614 222° Southwest 267 307 14,500 -660 Descending Los Angeles Center
04:45PM 34.4175 -116.9239 224° Southwest 266 306 13,800 -720 Descending Los Angeles Center
04:46PM 34.3653 -116.9864 225° Southwest 264 304 13,100 -660 Descending Los Angeles Center
04:47PM 34.3133 -117.0472 224° Southwest 261 300 12,500 -540 Descending Los Angeles Center
04:48PM 34.2608 -117.1136 226° Southwest 270 311 12,100 -660 Descending Los Angeles Center
04:49PM 34.1861 -117.1708 212° Southwest 268 308 11,200 -720 Descending Los Angeles Center
04:50PM 34.1317 -117.2283 221° Southwest 270 311 10,700 -660 Descending Los Angeles Center
04:51PM 34.0833 -117.2667 213° Southwest 274 315 10,200 -720 Descending Southern California TRACON
04:52PM 34.0333 -117.3333 228° Southwest 276 318 9,600 -660 Descending Southern California TRACON
04:53PM 33.9833 -117.3833 220° Southwest 278 320 8,900 -660 Descending Southern California TRACON
04:54PM 33.9167 -117.4500 220° Southwest 276 318 8,300 -540 Descending Southern California TRACON
04:55PM 33.8667 -117.5000 220° Southwest 250 288 7,900 -240 Descending Southern California TRACON
04:56PM 33.8406 -117.5364 229° Southwest 251 289 8,000 -120 Climbing Los Angeles Center
04:57PM 33.7961 -117.5914 226° Southwest 238 274 7,700 -660 Descending Los Angeles Center
04:58PM 33.7658 -117.6619 243° Southwest 238 274 6,700 -1,020 Descending Los Angeles Center
04:59PM 33.7392 -117.7367 247° West 241 277 5,600 -1,140 Descending Los Angeles Center
05:00PM 33.7194 -117.8125 253° West 240 276 4,400 -1,260 Descending Los Angeles Center
05:01PM 33.6939 -117.8992 251° West 235 270 3,100 -840 Descending Los Angeles Center
05:02PM 33.6778 -117.9658 254° West 220 253 2,700 -660 Descending Los Angeles Center
05:03PM 33.7167 -118.0167 313° West 169 194 1,700 -540 Descending Southern California TRACON
05:04PM 33.7500 -118.0667 309° West 166 191 1,600 -300 Descending Southern California TRACON
05:05PM 33.7667 -118.1000 301° West 135 155 1,100 -600 Descending Southern California TRACON
05:06PM 33.8000 -118.1167 337° Northwest 127 146 500 -480 Descending Southern California TRACON
05:07PM 33.8178 -118.1506 302° West 109 125 100 -360 Descending Los Angeles Center